Time;durP1;ratioP1;P1;durP2;ratioP2;P2;SDS_P1;SDS_P2;PMS_P1;PMS_P2;Temp;Humidity;BMP_temperature;BMP_pressure;BME280_temperature;BME280_humidity;BME280_pressure;Samples;Min_cycle;Max_cycle;Signal;HPM_P1;HPM_P2
2022/04/10 03:02:32;;;;;;;1.02;0.60;;;16.70;46.40;;;;;;4945967;23;45160;-55
2022/04/10 03:04:57;;;;;;;0.60;0.50;;;16.70;46.40;;;;;;4953200;28;45178;-58
2022/04/10 03:07:23;;;;;;;1.15;0.63;;;16.70;46.40;;;;;;4954997;28;44901;-53
2022/04/10 03:09:48;;;;;;;0.60;0.52;;;16.70;46.40;;;;;;4959760;28;45165;-59
2022/04/10 03:12:14;;;;;;;0.73;0.50;;;16.70;46.40;;;;;;4953937;28;47346;-56
2022/04/10 03:14:40;;;;;;;0.60;0.47;;;16.70;46.40;;;;;;4962233;28;45159;-54
2022/04/10 03:17:05;;;;;;;1.25;0.57;;;16.70;46.40;;;;;;4956647;28;44730;-56
2022/04/10 03:19:31;;;;;;;0.70;0.60;;;16.70;46.40;;;;;;4958481;28;45262;-53
2022/04/10 03:21:57;;;;;;;0.68;0.47;;;16.70;46.40;;;;;;4961473;28;46247;-56
2022/04/10 03:24:22;;;;;;;0.60;0.52;;;16.70;46.40;;;;;;4961084;28;45284;-56
2022/04/10 03:26:48;;;;;;;0.60;0.50;;;16.60;46.40;;;;;;4962658;28;45463;-56
2022/04/10 03:29:13;;;;;;;0.55;0.40;;;16.70;46.40;;;;;;4959412;28;45343;-56
2022/04/10 03:31:39;;;;;;;1.08;0.68;;;16.60;46.40;;;;;;4957947;28;46090;-58
2022/04/10 03:34:05;;;;;;;0.75;0.60;;;16.60;46.50;;;;;;4962978;28;44809;-57
2022/04/10 03:36:31;;;;;;;1.05;0.50;;;16.60;46.40;;;;;;4957019;28;45303;-56
2022/04/10 03:38:56;;;;;;;0.30;0.30;;;16.60;46.50;;;;;;4957696;28;45105;-53
2022/04/10 03:41:22;;;;;;;1.13;0.60;;;16.60;46.50;;;;;;4959735;28;46912;-58
2022/04/10 03:43:47;;;;;;;0.65;0.60;;;16.60;46.60;;;;;;4963064;28;45555;-57
2022/04/10 03:46:13;;;;;;;0.52;0.50;;;16.60;46.50;;;;;;4961124;28;45155;-58
2022/04/10 03:48:39;;;;;;;1.23;0.80;;;16.60;46.60;;;;;;4961149;28;45121;-58
2022/04/10 03:51:04;;;;;;;0.90;0.50;;;16.50;46.50;;;;;;4960533;28;46151;-56
2022/04/10 03:53:30;;;;;;;0.60;0.50;;;16.60;46.50;;;;;;4961385;28;45191;-58
2022/04/10 03:55:55;;;;;;;1.30;0.75;;;16.50;46.50;;;;;;4957861;28;45256;-56
2022/04/10 03:58:21;;;;;;;0.85;0.50;;;16.50;46.50;;;;;;4957606;28;45047;-55
2022/04/10 04:00:47;;;;;;;0.80;0.60;;;16.50;46.50;;;;;;4953645;28;45966;-56
2022/04/10 04:03:13;;;;;;;0.88;0.60;;;16.50;46.50;;;;;;4959717;28;45523;-54
2022/04/10 04:05:39;;;;;;;0.82;0.60;;;16.50;46.60;;;;;;4958780;28;45369;-57
2022/04/10 04:08:05;;;;;;;1.10;0.60;;;16.50;46.60;;;;;;4961410;28;45311;-56
2022/04/10 04:10:30;;;;;;;1.08;0.60;;;16.50;46.60;;;;;;4960626;28;45988;-58
2022/04/10 04:12:56;;;;;;;0.80;0.52;;;16.50;46.60;;;;;;4956938;28;45396;-52
2022/04/10 04:15:21;;;;;;;0.90;0.63;;;16.50;46.60;;;;;;4959821;28;45366;-57
2022/04/10 04:17:47;;;;;;;0.50;0.50;;;16.50;46.60;;;;;;4960836;28;45080;-58
2022/04/10 04:20:13;;;;;;;1.02;0.70;;;16.50;46.60;;;;;;4960831;28;46059;-57
2022/04/10 04:22:39;;;;;;;0.52;0.52;;;16.50;46.60;;;;;;4956295;28;45498;-57
2022/04/10 04:25:06;;;;;;;1.58;0.73;;;16.40;46.60;;;;;;4961169;28;45132;-56
2022/04/10 04:27:32;;;;;;;1.05;0.50;;;16.50;46.60;;;;;;4961135;28;44951;-56
2022/04/10 04:29:57;;;;;;;1.00;0.70;;;16.50;46.60;;;;;;4957987;28;46046;-56
2022/04/10 04:32:23;;;;;;;0.50;0.50;;;16.50;46.70;;;;;;4959240;28;45263;-57
2022/04/10 04:34:49;;;;;;;0.95;0.50;;;16.40;46.60;;;;;;4963014;28;45313;-55
2022/04/10 04:37:14;;;;;;;0.82;0.63;;;16.40;46.60;;;;;;4959455;28;45337;-56
2022/04/10 04:39:40;;;;;;;1.02;0.60;;;16.40;46.60;;;;;;4960940;28;45234;-53
2022/04/10 04:42:06;;;;;;;1.02;0.77;;;16.40;46.60;;;;;;4957742;28;44819;-58
2022/04/10 04:44:32;;;;;;;0.73;0.60;;;16.40;46.60;;;;;;4960646;28;45132;-53
2022/04/10 04:46:58;;;;;;;1.05;0.70;;;16.40;46.60;;;;;;4958063;28;44782;-57
2022/04/10 04:49:27;;;;;;;0.80;0.50;;;16.40;46.60;;;;;;4960838;28;46945;-53
2022/04/10 04:51:52;;;;;;;0.40;0.40;;;16.40;46.60;;;;;;4958557;28;45362;-58
2022/04/10 04:54:18;;;;;;;1.17;0.70;;;16.40;46.60;;;;;;4959679;28;45374;-57
2022/04/10 04:56:43;;;;;;;0.50;0.50;;;16.40;46.60;;;;;;4956801;28;45222;-57
2022/04/10 04:59:09;;;;;;;0.52;0.52;;;16.30;46.60;;;;;;4955545;28;45191;-58
2022/04/10 05:01:35;;;;;;;0.85;0.50;;;16.30;47.20;;;;;;4957043;28;45732;-54
2022/04/10 05:04:01;;;;;;;0.68;0.52;;;16.40;46.60;;;;;;4958742;28;45398;-57
2022/04/10 05:06:26;;;;;;;1.38;0.35;;;16.30;46.60;;;;;;4957723;28;44899;-58
2022/04/10 05:08:52;;;;;;;0.88;0.70;;;16.40;46.60;;;;;;4959682;28;46164;-59
2022/04/10 05:11:18;;;;;;;0.52;0.52;;;16.40;46.60;;;;;;4957773;28;45084;-61
2022/04/10 05:13:43;;;;;;;0.73;0.60;;;16.40;46.40;;;;;;4960726;28;44661;-58
2022/04/10 05:16:09;;;;;;;0.75;0.50;;;16.50;46.30;;;;;;4959749;28;44818;-59
2022/04/10 05:18:34;;;;;;;0.60;0.45;;;16.60;46.20;;;;;;4960249;28;46199;-59
2022/04/10 05:21:00;;;;;;;0.95;0.57;;;16.70;46.00;;;;;;4955977;28;45219;-59
2022/04/10 05:23:26;;;;;;;0.47;0.47;;;16.80;45.90;;;;;;4957506;28;44889;-57
2022/04/10 05:25:52;;;;;;;0.98;0.47;;;17.00;45.80;;;;;;4957900;28;45312;-58
2022/04/10 05:28:17;;;;;;;0.60;0.50;;;17.10;45.60;;;;;;4957367;28;45583;-61
2022/04/10 05:30:43;;;;;;;1.25;0.70;;;17.20;45.40;;;;;;4958620;28;45744;-58
2022/04/10 05:33:09;;;;;;;0.38;0.38;;;17.40;45.20;;;;;;4958799;28;46062;-60
2022/04/10 05:35:35;;;;;;;1.40;0.50;;;17.50;45.00;;;;;;4941094;28;45293;-59
2022/04/10 05:38:00;;;;;;;0.52;0.43;;;17.60;45.00;;;;;;4959670;28;45186;-60
2022/04/10 05:40:26;;;;;;;0.45;0.40;;;17.60;44.90;;;;;;4959662;28;45184;-60
2022/04/10 05:42:51;;;;;;;0.40;0.40;;;17.80;44.90;;;;;;4959716;28;45442;-58
2022/04/10 05:45:17;;;;;;;0.47;0.40;;;17.90;44.80;;;;;;4953433;28;45275;-57
2022/04/10 05:47:43;;;;;;;1.23;0.50;;;18.00;44.60;;;;;;4957849;28;45043;-58
2022/04/10 05:50:10;;;;;;;0.90;0.47;;;18.20;44.50;;;;;;4959247;28;44650;-61
2022/04/10 05:52:39;;;;;;;0.60;0.43;;;18.30;44.30;;;;;;4956078;28;45303;-58
2022/04/10 05:55:06;;;;;;;0.30;0.30;;;18.50;44.00;;;;;;4958392;28;45290;-60
2022/04/10 05:57:32;;;;;;;0.60;0.50;;;18.60;43.80;;;;;;4960119;28;46046;-58
2022/04/10 05:59:57;;;;;;;0.45;0.30;;;18.80;43.70;;;;;;4959276;28;44709;-60
2022/04/10 06:02:23;;;;;;;0.35;0.35;;;18.90;43.40;;;;;;4955583;28;45578;-59
2022/04/10 06:04:48;;;;;;;0.50;0.40;;;19.10;43.30;;;;;;4958527;28;45447;-59
2022/04/10 06:07:14;;;;;;;0.47;0.38;;;19.20;43.20;;;;;;4959441;28;45514;-59
2022/04/10 06:09:42;;;;;;;0.32;0.30;;;19.30;43.10;;;;;;4958424;28;45266;-61
2022/04/10 06:12:09;;;;;;;2.42;0.30;;;19.50;42.80;;;;;;4954411;28;45554;-60
2022/04/10 06:14:34;;;;;;;0.50;0.40;;;19.80;42.50;;;;;;4951607;28;45497;-59
2022/04/10 06:17:00;;;;;;;0.88;0.40;;;19.80;42.30;;;;;;4956925;28;47103;-59
2022/04/10 06:19:27;;;;;;;0.88;0.50;;;19.80;42.40;;;;;;4960707;28;45192;-58
2022/04/10 06:21:53;;;;;;;0.60;0.40;;;19.90;42.50;;;;;;4959348;28;45243;-58
2022/04/10 06:24:20;;;;;;;0.95;0.30;;;19.90;42.50;;;;;;4955910;28;45322;-59
2022/04/10 06:26:48;;;;;;;0.38;0.32;;;19.90;42.50;;;;;;4959408;28;46064;-59
2022/04/10 06:29:17;;;;;;;0.35;0.30;;;20.00;42.50;;;;;;4961533;28;45192;-59
2022/04/10 06:31:43;;;;;;;0.45;0.40;;;20.10;42.40;;;;;;4961635;28;45610;-58
2022/04/10 06:34:08;;;;;;;0.45;0.30;;;20.20;42.50;;;;;;4960049;28;45484;-58
2022/04/10 06:36:34;;;;;;;0.43;0.35;;;20.30;42.40;;;;;;4957491;28;45260;-57
2022/04/10 06:38:59;;;;;;;0.30;0.30;;;20.40;42.20;;;;;;4963430;28;44896;-59
2022/04/10 06:41:25;;;;;;;0.60;0.40;;;20.50;42.10;;;;;;4961584;28;45309;-64
2022/04/10 06:43:50;;;;;;;0.63;0.47;;;20.50;42.00;;;;;;4962209;28;45409;-64
2022/04/10 06:46:16;;;;;;;0.73;0.30;;;20.60;42.00;;;;;;4960557;28;44861;-66
2022/04/10 06:48:42;;;;;;;1.35;0.40;;;20.70;41.90;;;;;;4957677;28;45327;-65
2022/04/10 06:51:07;;;;;;;0.57;0.47;;;20.70;41.90;;;;;;4960134;28;45585;-66
2022/04/10 06:53:33;;;;;;;0.30;0.30;;;20.80;41.90;;;;;;4962426;28;45191;-65
2022/04/10 06:55:58;;;;;;;0.63;0.35;;;20.80;41.80;;;;;;4960230;28;46112;-64
2022/04/10 06:58:24;;;;;;;0.47;0.30;;;20.90;41.70;;;;;;4962835;28;45345;-65
2022/04/10 07:00:49;;;;;;;0.75;0.40;;;21.00;41.70;;;;;;4955325;28;44988;-66
2022/04/10 07:03:15;;;;;;;0.25;0.20;;;21.10;41.70;;;;;;4943633;28;45318;-66
2022/04/10 07:05:41;;;;;;;0.43;0.30;;;21.10;41.60;;;;;;4966247;28;46149;-65
2022/04/10 07:08:07;;;;;;;0.30;0.30;;;21.20;41.50;;;;;;4960920;28;45156;-64
2022/04/10 07:10:33;;;;;;;0.30;0.28;;;21.20;41.50;;;;;;4958135;28;45216;-70
2022/04/10 07:12:59;;;;;;;0.38;0.25;;;21.30;41.50;;;;;;4961952;28;45601;-64
2022/04/10 07:15:25;;;;;;;0.47;0.20;;;21.40;41.40;;;;;;4971385;28;45249;-65
2022/04/10 07:17:51;;;;;;;0.80;0.47;;;21.50;41.30;;;;;;4961641;28;45235;-64
2022/04/10 07:20:16;;;;;;;0.30;0.30;;;21.50;41.20;;;;;;4950274;28;45263;-64
2022/04/10 07:25:26;;;;;;;0.20;0.20;;;21.70;41.10;;;;;;4966865;28;45494;-65
2022/04/10 07:27:52;;;;;;;0.30;0.20;;;21.70;41.00;;;;;;4949812;28;45181;-64
2022/04/10 07:30:17;;;;;;;0.50;0.35;;;21.80;41.00;;;;;;4958118;28;45492;-64
2022/04/10 07:32:49;;;;;;;0.40;0.20;;;21.90;41.00;;;;;;4960626;28;45791;-64
2022/04/10 07:35:15;;;;;;;0.50;0.20;;;21.90;40.90;;;;;;4959592;28;45501;-64
2022/04/10 07:37:41;;;;;;;0.70;0.30;;;22.00;40.80;;;;;;4960223;28;45224;-65
2022/04/10 07:40:07;;;;;;;0.60;0.28;;;22.00;40.80;;;;;;4958281;28;45390;-65
2022/04/10 07:42:46;;;;;;;0.30;0.30;;;22.10;40.80;;;;;;4961275;28;45233;-64
2022/04/10 07:47:25;;;;;;;0.22;0.20;;;22.20;40.70;;;;;;4960803;28;46111;-64
2022/04/10 07:48:00;;;;;;;0.55;0.20;;;22.20;40.60;;;;;;4957342;28;45161;-66
2022/04/10 07:50:26;;;;;;;0.98;0.30;;;22.30;41.30;;;;;;4942903;28;45489;-65
2022/04/10 07:52:52;;;;;;;0.20;0.20;;;22.40;40.60;;;;;;4958661;28;45625;-64
2022/04/10 07:55:17;;;;;;;0.45;0.20;;;22.40;40.50;;;;;;4956999;28;45943;-65
2022/04/10 07:57:43;;;;;;;0.22;0.22;;;22.50;40.50;;;;;;4955968;28;45576;-64
2022/04/10 08:00:09;;;;;;;0.32;0.25;;;22.60;40.40;;;;;;4956394;28;45285;-65
2022/04/10 08:02:35;;;;;;;1.25;0.25;;;22.60;40.30;;;;;;4958265;28;45000;-64
2022/04/10 08:05:00;;;;;;;0.30;0.20;;;22.70;40.30;;;;;;4935497;28;46276;-64
2022/04/10 08:07:26;;;;;;;1.02;0.30;;;22.70;40.20;;;;;;4956695;28;45268;-64
2022/04/10 08:09:51;;;;;;;0.43;0.20;;;22.80;40.10;;;;;;4957433;28;46706;-64
2022/04/10 08:12:17;;;;;;;0.20;0.20;;;22.90;40.20;;;;;;4953707;28;45515;-63
2022/04/10 08:14:43;;;;;;;0.47;0.20;;;22.90;40.10;;;;;;4958364;28;46580;-63
2022/04/10 08:17:11;;;;;;;1.17;0.30;;;23.00;40.10;;;;;;4951670;28;45477;-63
2022/04/10 08:19:40;;;;;;;0.63;0.28;;;23.00;40.00;;;;;;4948303;28;45560;-65
2022/04/10 08:22:06;;;;;;;0.22;0.20;;;23.10;40.10;;;;;;4952450;28;45512;-65
2022/04/10 08:24:32;;;;;;;0.47;0.20;;;23.10;39.90;;;;;;4956422;28;45894;-65
2022/04/10 08:26:59;;;;;;;0.95;0.30;;;23.20;39.90;;;;;;4958360;28;45454;-65
2022/04/10 08:29:25;;;;;;;0.38;0.20;;;23.20;39.90;;;;;;4948242;28;45032;-63
2022/04/10 08:31:51;;;;;;;0.55;0.25;;;23.20;39.80;;;;;;4957421;28;45482;-65
2022/04/10 08:34:16;;;;;;;0.30;0.10;;;23.30;39.90;;;;;;4939887;28;45939;-64
2022/04/10 08:36:42;;;;;;;0.40;0.20;;;23.30;39.90;;;;;;4953434;28;44999;-64
2022/04/10 08:39:07;;;;;;;0.40;0.20;;;23.30;39.80;;;;;;4953008;28;45169;-65
2022/04/10 08:41:33;;;;;;;0.52;0.22;;;23.30;39.70;;;;;;4960098;28;45574;-64
2022/04/10 08:44:02;;;;;;;0.28;0.28;;;23.40;39.70;;;;;;4954409;28;45953;-63
2022/04/10 08:46:29;;;;;;;0.55;0.20;;;23.50;39.60;;;;;;4959240;28;45149;-64
2022/04/10 08:48:55;;;;;;;0.28;0.22;;;23.50;39.70;;;;;;4954017;28;45284;-63
2022/04/10 08:51:23;;;;;;;0.20;0.20;;;23.50;39.60;;;;;;4957840;28;45394;-63
2022/04/10 08:53:48;;;;;;;0.28;0.20;;;23.60;39.60;;;;;;4957401;28;45215;-63
2022/04/10 08:56:14;;;;;;;0.50;0.20;;;23.60;39.50;;;;;;4958721;28;44713;-63
2022/04/10 08:58:39;;;;;;;0.25;0.20;;;23.60;39.60;;;;;;4959940;28;45191;-62
2022/04/10 09:01:05;;;;;;;0.50;0.20;;;23.70;39.60;;;;;;4957039;28;45119;-62
2022/04/10 09:03:31;;;;;;;0.60;0.30;;;23.70;39.50;;;;;;4956450;28;46400;-62
2022/04/10 09:06:07;;;;;;;0.30;0.20;;;23.70;39.50;;;;;;4952342;28;45461;-64
2022/04/10 09:08:33;;;;;;;0.40;0.20;;;23.70;39.30;;;;;;4959404;28;45503;-64
2022/04/10 09:11:06;;;;;;;0.65;0.20;;;23.80;39.50;;;;;;4952844;28;45338;-64
2022/04/10 09:13:33;;;;;;;0.30;0.23;;;23.80;38.80;;;;;;4960667;28;45315;-64
2022/04/10 09:16:18;;;;;;;0.68;0.30;;;23.70;38.70;;;;;;4951057;28;45401;-63
2022/04/10 09:18:46;;;;;;;0.50;0.20;;;23.60;37.80;;;;;;4955586;28;44897;-65
2022/04/10 09:21:11;;;;;;;0.60;0.20;;;23.60;39.00;;;;;;4956742;28;45390;-63
2022/04/10 09:23:37;;;;;;;0.30;0.30;;;23.50;39.00;;;;;;4960244;28;45356;-64
2022/04/10 09:26:03;;;;;;;0.65;0.38;;;23.50;38.70;;;;;;4955667;28;44722;-64
2022/04/10 09:28:45;;;;;;;0.82;0.40;;;23.30;38.40;;;;;;4948629;28;45064;-64
2022/04/10 09:31:33;;;;;;;1.30;0.30;;;23.20;37.80;;;;;;4948212;28;45715;-66
2022/04/10 09:34:01;;;;;;;3.50;0.32;;;23.10;38.10;;;;;;4949873;28;46726;-64
2022/04/10 09:36:32;;;;;;;0.47;0.30;;;23.10;38.70;;;;;;4943117;28;45321;-64
2022/04/10 09:38:58;;;;;;;0.57;0.20;;;23.00;38.60;;;;;;4950638;28;44758;-64
2022/04/10 09:41:24;;;;;;;2.03;0.50;;;22.90;38.80;;;;;;4938958;28;45384;-64
2022/04/10 09:43:50;;;;;;;0.17;0.15;;;22.90;39.60;;;;;;4954523;28;46611;-64
2022/04/10 09:46:15;;;;;;;1.08;0.57;;;22.90;39.20;;;;;;4950730;28;45253;-64
2022/04/10 09:48:41;;;;;;;1.40;0.40;;;22.80;39.20;;;;;;4953699;28;44848;-64
2022/04/10 09:51:07;;;;;;;0.60;0.20;;;22.70;39.20;;;;;;4954446;28;45614;-65
2022/04/10 09:53:33;;;;;;;0.60;0.30;;;22.70;40.00;;;;;;4936632;28;46170;-64
2022/04/10 09:56:02;;;;;;;0.68;0.17;;;22.60;39.50;;;;;;4934491;28;45346;-64
2022/04/10 09:58:29;;;;;;;0.63;0.30;;;22.60;39.40;;;;;;4952462;28;45285;-63
2022/04/10 10:00:55;;;;;;;0.45;0.30;;;22.50;39.50;;;;;;4952748;28;46411;-64
2022/04/10 10:03:25;;;;;;;0.40;0.40;;;22.50;39.60;;;;;;4955547;28;46353;-64
2022/04/10 10:05:52;;;;;;;0.85;0.40;;;22.40;39.70;;;;;;4953550;28;45257;-63
2022/04/10 10:08:17;;;;;;;0.80;0.30;;;22.40;39.90;;;;;;4958371;28;44907;-63
2022/04/10 10:10:44;;;;;;;0.20;0.20;;;22.30;39.90;;;;;;4957811;28;45271;-64
2022/04/10 10:13:10;;;;;;;0.38;0.30;;;22.30;40.00;;;;;;4940419;28;45157;-63
2022/04/10 10:15:36;;;;;;;0.57;0.30;;;22.20;40.00;;;;;;4951979;28;45747;-63
2022/04/10 10:18:06;;;;;;;0.57;0.40;;;22.20;40.10;;;;;;4951866;28;45512;-65
2022/04/10 10:20:32;;;;;;;1.33;0.40;;;22.20;40.20;;;;;;4953570;28;45852;-65
2022/04/10 10:23:00;;;;;;;0.30;0.30;;;22.10;40.20;;;;;;4953093;28;47110;-64
2022/04/10 10:25:41;;;;;;;2.25;0.30;;;22.00;40.20;;;;;;4940063;28;44593;-64
2022/04/10 10:28:28;;;;;;;0.30;0.30;;;22.10;40.30;;;;;;4936964;28;45271;-64
2022/04/10 10:31:21;;;;;;;0.38;0.25;;;22.00;40.30;;;;;;4945069;28;44719;-65
2022/04/10 10:33:49;;;;;;;0.38;0.30;;;21.90;40.30;;;;;;4954877;28;45286;-63
2022/04/10 10:36:21;;;;;;;0.43;0.40;;;21.90;40.50;;;;;;4919366;28;45114;-64
2022/04/10 10:38:52;;;;;;;0.80;0.35;;;21.90;40.50;;;;;;4953296;28;44930;-64
2022/04/10 10:41:18;;;;;;;0.82;0.50;;;21.80;40.60;;;;;;4955185;28;45673;-64
2022/04/10 10:43:44;;;;;;;0.82;0.40;;;21.70;40.70;;;;;;4955996;28;45046;-64
2022/04/10 10:46:32;;;;;;;0.47;0.30;;;21.70;40.80;;;;;;4955462;28;45463;-64
2022/04/10 10:49:14;;;;;;;0.55;0.30;;;21.70;41.40;;;;;;4956345;28;45496;-62
2022/04/10 10:51:44;;;;;;;0.40;0.30;;;21.60;40.80;;;;;;4956885;28;45263;-64
2022/04/10 10:54:34;;;;;;;0.63;0.40;;;21.60;40.90;;;;;;4955384;28;45142;-64
2022/04/10 10:57:19;;;;;;;0.70;0.30;;;21.50;40.90;;;;;;4954562;28;44981;-64
2022/04/10 10:59:45;;;;;;;0.73;0.20;;;21.50;41.00;;;;;;4956829;28;44676;-63
2022/04/10 11:02:18;;;;;;;1.13;0.40;;;21.40;41.10;;;;;;4953942;28;44869;-64
2022/04/10 11:04:48;;;;;;;0.95;0.38;;;21.40;41.10;;;;;;4954064;28;46008;-63
2022/04/10 11:07:19;;;;;;;0.20;0.20;;;21.40;41.20;;;;;;4956297;28;45180;-64
2022/04/10 11:10:05;;;;;;;1.42;0.30;;;21.40;41.20;;;;;;4958995;28;45249;-64
2022/04/10 11:12:34;;;;;;;0.55;0.28;;;21.30;41.10;;;;;;4950872;28;45263;-63
2022/04/10 11:15:22;;;;;;;0.82;0.30;;;21.20;41.20;;;;;;4950727;28;46165;-64
2022/04/10 11:17:52;;;;;;;0.30;0.30;;;21.20;41.20;;;;;;4951525;28;44769;-64
2022/04/10 11:20:22;;;;;;;0.43;0.32;;;21.20;41.30;;;;;;4954300;28;45561;-63
2022/04/10 11:23:08;;;;;;;0.70;0.30;;;21.10;41.20;;;;;;4955305;28;45624;-63
2022/04/10 11:25:38;;;;;;;0.50;0.22;;;21.10;41.30;;;;;;4954447;28;46119;-64
2022/04/10 11:28:04;;;;;;;0.57;0.20;;;21.10;41.30;;;;;;4953462;28;45229;-64
2022/04/10 11:30:31;;;;;;;0.80;0.35;;;21.10;41.50;;;;;;4936015;28;45618;-63
2022/04/10 11:32:57;;;;;;;0.50;0.30;;;21.00;41.40;;;;;;4957402;28;44782;-64
2022/04/10 11:35:29;;;;;;;1.33;0.50;;;21.00;41.50;;;;;;4954707;28;46201;-64
2022/04/10 11:37:59;;;;;;;0.25;0.20;;;21.00;41.50;;;;;;4955015;28;45353;-65
2022/04/10 11:40:32;;;;;;;0.98;0.50;;;20.90;41.50;;;;;;4948907;28;45430;-64
2022/04/10 11:42:59;;;;;;;1.15;0.40;;;20.90;41.60;;;;;;4951730;28;45255;-64
2022/04/10 11:45:26;;;;;;;0.30;0.30;;;20.80;41.60;;;;;;4952840;28;45311;-63
2022/04/10 11:47:52;;;;;;;0.20;0.20;;;20.80;41.70;;;;;;4952422;28;45282;-64
2022/04/10 11:50:18;;;;;;;1.25;0.40;;;20.80;41.70;;;;;;4953037;28;45286;-64
2022/04/10 11:53:12;;;;;;;1.58;0.32;;;20.80;41.30;;;;;;4946172;28;46830;-63
2022/04/10 11:55:47;;;;;;;8.38;0.45;;;20.70;41.20;;;;;;4956295;28;46415;-64
2022/04/10 11:58:24;;;;;;;1.85;0.50;;;20.70;40.70;;;;;;4954238;28;44606;-64
2022/04/10 12:00:53;;;;;;;0.73;0.30;;;20.70;41.20;;;;;;4952822;28;44713;-64
2022/04/10 12:03:22;;;;;;;0.95;0.30;;;20.60;41.40;;;;;;4946855;28;48431;-64
2022/04/10 12:05:48;;;;;;;1.15;0.30;;;20.60;41.50;;;;;;4955086;28;46088;-64
2022/04/10 12:08:14;;;;;;;1.00;0.30;;;20.60;41.60;;;;;;4952195;28;45360;-64
2022/04/10 12:10:40;;;;;;;3.55;0.30;;;20.50;41.60;;;;;;4938208;28;45465;-63
2022/04/10 12:13:07;;;;;;;0.35;0.20;;;20.50;41.60;;;;;;4952045;28;45220;-64
2022/04/10 12:15:33;;;;;;;2.97;0.35;;;20.50;41.60;;;;;;4945387;28;47273;-64
2022/04/10 12:18:10;;;;;;;0.73;0.40;;;20.40;42.30;;;;;;4951213;28;45143;-64
2022/04/10 12:20:36;;;;;;;1.55;0.30;;;20.40;41.60;;;;;;4950350;28;44777;-65
2022/04/10 12:23:21;;;;;;;0.65;0.20;;;20.40;41.70;;;;;;4955089;28;45589;-65
2022/04/10 12:25:54;;;;;;;0.70;0.30;;;20.40;41.70;;;;;;4951113;28;45886;-64
2022/04/10 12:28:20;;;;;;;1.75;0.57;;;20.30;41.70;;;;;;4947689;28;44674;-63
2022/04/10 12:30:45;;;;;;;0.82;0.40;;;20.30;41.80;;;;;;4950023;28;45324;-64
2022/04/10 12:33:12;;;;;;;2.50;0.45;;;20.30;41.80;;;;;;4950981;28;45919;-64
2022/04/10 12:35:39;;;;;;;3.60;0.68;;;20.30;41.70;;;;;;4954736;28;46183;-64
2022/04/10 12:38:05;;;;;;;3.50;0.70;;;20.20;41.70;;;;;;4955272;28;45475;-64
2022/04/10 12:40:30;;;;;;;0.52;0.40;;;20.20;41.80;;;;;;4953710;28;45442;-64
2022/04/10 12:43:00;;;;;;;0.65;0.30;;;20.20;41.90;;;;;;4955362;28;45595;-64
2022/04/10 12:45:29;;;;;;;6.40;0.40;;;20.10;41.80;;;;;;4956200;28;46081;-64
2022/04/10 12:47:55;;;;;;;1.10;0.47;;;20.10;41.90;;;;;;4953819;28;45729;-64
2022/04/10 12:50:22;;;;;;;0.30;0.30;;;20.10;41.90;;;;;;4954408;28;45047;-64
2022/04/10 12:52:48;;;;;;;4.60;0.30;;;20.10;42.00;;;;;;4938882;28;44798;-63
2022/04/10 12:55:15;;;;;;;0.68;0.40;;;20.00;41.90;;;;;;4956168;28;46373;-64
2022/04/10 12:57:43;;;;;;;0.88;0.40;;;20.10;42.00;;;;;;4955600;28;45030;-63
2022/04/10 13:00:29;;;;;;;0.65;0.40;;;20.00;42.00;;;;;;4961169;28;45251;-63
2022/04/10 13:02:55;;;;;;;3.03;0.43;;;20.00;42.00;;;;;;4947716;28;45364;-64
2022/04/10 13:05:20;;;;;;;3.13;0.47;;;20.00;42.10;;;;;;4955928;28;46074;-64
2022/04/10 13:07:59;;;;;;;0.85;0.43;;;19.90;42.10;;;;;;4958725;28;45325;-63
2022/04/10 13:10:25;;;;;;;0.43;0.35;;;19.90;42.10;;;;;;4956874;28;45245;-64
2022/04/10 13:13:02;;;;;;;0.77;0.32;;;19.90;42.10;;;;;;4955219;28;45665;-64
2022/04/10 13:15:30;;;;;;;1.35;0.40;;;19.90;42.20;;;;;;4955582;28;46243;-63
2022/04/10 13:17:56;;;;;;;0.30;0.30;;;19.80;42.10;;;;;;4955119;28;45200;-64
2022/04/10 13:20:23;;;;;;;0.50;0.30;;;19.90;42.20;;;;;;4953899;28;45525;-63
2022/04/10 13:22:49;;;;;;;1.70;0.40;;;19.80;42.80;;;;;;4952973;28;45787;-64
2022/04/10 13:25:14;;;;;;;1.33;0.38;;;19.80;42.20;;;;;;4956143;28;45294;-64
2022/04/10 13:27:40;;;;;;;1.35;0.32;;;19.80;42.20;;;;;;4954176;28;45533;-63
2022/04/10 13:30:06;;;;;;;1.35;0.30;;;19.80;42.30;;;;;;4954322;28;44695;-64
2022/04/10 13:32:32;;;;;;;3.03;0.40;;;19.70;42.30;;;;;;4955998;28;45417;-64
2022/04/10 13:34:58;;;;;;;2.65;0.40;;;19.70;42.30;;;;;;4950540;28;46579;-64
2022/04/10 13:37:26;;;;;;;1.40;0.47;;;19.70;42.40;;;;;;4934699;28;45447;-64
2022/04/10 13:39:52;;;;;;;1.27;0.30;;;19.70;42.40;;;;;;4956790;28;45500;-64
2022/04/10 13:42:18;;;;;;;1.15;0.45;;;19.70;42.40;;;;;;4955881;28;45703;-63
2022/04/10 13:44:43;;;;;;;1.55;0.57;;;19.60;42.40;;;;;;4955629;28;45256;-64
2022/04/10 13:47:09;;;;;;;1.38;0.43;;;19.60;42.50;;;;;;4951221;28;45007;-63
2022/04/10 13:49:34;;;;;;;0.40;0.30;;;19.60;42.50;;;;;;4955644;28;45353;-65
2022/04/10 13:52:00;;;;;;;1.65;0.30;;;19.60;42.50;;;;;;4948530;28;45220;-72
2022/04/10 13:54:26;;;;;;;0.55;0.30;;;19.60;42.50;;;;;;4949211;28;45558;-64
2022/04/10 13:56:52;;;;;;;0.88;0.35;;;19.60;42.60;;;;;;4953800;28;45343;-64
2022/04/10 13:59:18;;;;;;;2.33;0.30;;;19.60;42.60;;;;;;4955927;28;45295;-64
2022/04/10 14:01:43;;;;;;;0.60;0.47;;;19.50;42.60;;;;;;4952680;28;45582;-63
2022/04/10 14:04:09;;;;;;;1.95;0.55;;;19.40;42.60;;;;;;4947676;28;46990;-63
2022/04/10 14:06:34;;;;;;;0.82;0.30;;;19.40;42.70;;;;;;4933102;28;45514;-66
2022/04/10 14:09:00;;;;;;;0.47;0.35;;;19.40;42.80;;;;;;4953350;28;45389;-64
2022/04/10 14:11:29;;;;;;;0.60;0.35;;;19.40;42.80;;;;;;4950510;28;45223;-64
2022/04/10 14:13:55;;;;;;;1.02;0.43;;;19.40;42.90;;;;;;4947979;28;46923;-63
2022/04/10 14:16:20;;;;;;;0.60;0.30;;;19.30;42.80;;;;;;4945665;28;45280;-64
2022/04/10 14:18:46;;;;;;;2.90;0.47;;;19.30;42.80;;;;;;4939055;28;45852;-63
2022/04/10 14:21:13;;;;;;;0.30;0.30;;;19.30;42.90;;;;;;4945294;28;45474;-64
2022/04/10 14:23:38;;;;;;;0.63;0.40;;;19.30;42.90;;;;;;4944131;28;45343;-64
2022/04/10 14:26:07;;;;;;;0.70;0.30;;;19.30;43.00;;;;;;4946316;28;44591;-64
2022/04/10 14:28:34;;;;;;;1.55;0.38;;;19.20;43.00;;;;;;4930079;28;45303;-64
2022/04/10 14:30:59;;;;;;;0.90;0.40;;;19.20;43.00;;;;;;4949472;28;44764;-64
2022/04/10 14:33:25;;;;;;;2.60;0.30;;;19.20;43.10;;;;;;4942308;28;46054;-64
2022/04/10 14:35:50;;;;;;;1.10;0.40;;;19.20;43.00;;;;;;4930241;28;46371;-64
2022/04/10 14:38:16;;;;;;;0.57;0.35;;;19.20;43.10;;;;;;4946877;28;45029;-64
2022/04/10 14:40:42;;;;;;;0.45;0.30;;;19.10;43.10;;;;;;4948038;28;45234;-64
2022/04/10 14:43:07;;;;;;;1.05;0.50;;;19.10;43.20;;;;;;4944777;28;48070;-64
2022/04/10 14:45:33;;;;;;;0.98;0.40;;;19.10;43.20;;;;;;4945840;28;45496;-64
2022/04/10 14:47:59;;;;;;;1.75;0.35;;;19.10;43.10;;;;;;4945896;28;46024;-64
2022/04/10 14:50:24;;;;;;;0.60;0.28;;;19.10;43.20;;;;;;4950557;28;45070;-64
2022/04/10 14:52:50;;;;;;;0.40;0.20;;;19.10;43.20;;;;;;4948061;28;45965;-64
2022/04/10 14:55:16;;;;;;;0.20;0.20;;;19.10;43.20;;;;;;4951494;28;45372;-64
2022/04/10 14:57:41;;;;;;;0.68;0.50;;;19.00;43.20;;;;;;4949721;28;45131;-64
2022/04/10 15:00:10;;;;;;;1.50;0.22;;;19.00;43.20;;;;;;4944575;28;45715;-64
2022/04/10 15:02:36;;;;;;;0.30;0.30;;;19.00;43.30;;;;;;4944475;28;46114;-64
2022/04/10 15:05:04;;;;;;;1.15;0.30;;;19.00;43.30;;;;;;4947576;28;45281;-64
2022/04/10 15:07:29;;;;;;;2.17;0.30;;;19.00;43.30;;;;;;4949116;28;45398;-64
2022/04/10 15:09:55;;;;;;;0.40;0.25;;;19.00;43.30;;;;;;4948639;28;44836;-64
2022/04/10 15:12:21;;;;;;;0.43;0.30;;;19.00;43.30;;;;;;4949451;28;46395;-64
2022/04/10 15:14:47;;;;;;;2.00;0.30;;;19.00;43.40;;;;;;4947677;28;45304;-64
2022/04/10 15:17:13;;;;;;;0.43;0.30;;;19.00;43.50;;;;;;4946619;28;45343;-64
2022/04/10 15:19:39;;;;;;;0.35;0.35;;;18.90;43.40;;;;;;4947656;28;45544;-64
2022/04/10 15:22:05;;;;;;;0.90;0.50;;;18.90;43.50;;;;;;4948047;28;45510;-64
2022/04/10 15:24:30;;;;;;;1.65;0.40;;;18.90;43.60;;;;;;4946320;28;45398;-64
2022/04/10 15:26:56;;;;;;;0.50;0.30;;;18.90;43.70;;;;;;4947771;28;45994;-64
2022/04/10 15:29:22;;;;;;;1.05;0.50;;;18.80;43.60;;;;;;4950197;28;45283;-64
2022/04/10 15:31:47;;;;;;;0.80;0.40;;;18.80;44.20;;;;;;4948001;28;45659;-64
2022/04/10 15:34:13;;;;;;;0.95;0.35;;;18.80;43.60;;;;;;4950602;28;44686;-64
2022/04/10 15:36:40;;;;;;;0.40;0.30;;;18.80;43.60;;;;;;4950916;28;45476;-64
2022/04/10 15:39:06;;;;;;;0.40;0.40;;;18.80;43.60;;;;;;4949778;28;44990;-64
2022/04/10 15:41:40;;;;;;;1.17;0.30;;;18.80;43.70;;;;;;4948487;28;45542;-63
2022/04/10 15:44:06;;;;;;;0.38;0.30;;;18.80;43.70;;;;;;4949853;28;45358;-65
2022/04/10 15:46:31;;;;;;;0.95;0.30;;;18.80;43.70;;;;;;4947255;28;45960;-64
2022/04/10 15:48:57;;;;;;;0.90;0.40;;;18.70;43.60;;;;;;4949231;28;45493;-63
2022/04/10 15:51:22;;;;;;;0.43;0.30;;;18.70;43.70;;;;;;4949535;28;45962;-64
2022/04/10 15:53:48;;;;;;;0.40;0.30;;;18.70;43.70;;;;;;4949684;28;45248;-64